Time;durP1;ratioP1;P1;durP2;ratioP2;P2;SDS_P1;SDS_P2;PMS_P1;PMS_P2;Temp;Humidity;BMP_temperature;BMP_pressure;BME280_temperature;BME280_humidity;BME280_pressure;Samples;Min_cycle;Max_cycle;Signal;HPM_P1;HPM_P2
2024/04/01 00:00:31;;;;;;;6.30;1.60;;;14.70;99.90;;;;;;5094868;28;20204;-58
2024/04/01 00:02:58;;;;;;;4.17;1.40;;;14.80;99.90;;;;;;5094423;28;20695;-59
2024/04/01 00:05:24;;;;;;;6.63;1.30;;;14.80;99.90;;;;;;5094827;28;20670;-59
2024/04/01 00:07:51;;;;;;;8.17;1.60;;;14.90;99.90;;;;;;5095093;28;20228;-59
2024/04/01 00:10:17;;;;;;;12.30;2.20;;;14.80;99.90;;;;;;5095032;28;20224;-60
2024/04/01 00:12:45;;;;;;;9.37;1.70;;;14.80;99.90;;;;;;5094557;28;20253;-58
2024/04/01 00:15:11;;;;;;;6.57;1.83;;;14.80;99.90;;;;;;5094670;28;20200;-59
2024/04/01 00:17:37;;;;;;;7.67;1.50;;;14.70;99.90;;;;;;5094447;28;20227;-60
2024/04/01 00:20:04;;;;;;;6.50;1.80;;;14.60;99.90;;;;;;5094564;28;20227;-59
2024/04/01 00:22:30;;;;;;;3.63;1.40;;;14.50;99.90;;;;;;5094638;28;20192;-59
2024/04/01 00:24:56;;;;;;;5.23;1.93;;;14.40;99.90;;;;;;5094118;28;20213;-58
2024/04/01 00:27:23;;;;;;;6.70;1.67;;;14.40;99.90;;;;;;5093647;28;20215;-58
2024/04/01 00:29:50;;;;;;;4.67;1.50;;;14.40;99.90;;;;;;5094339;28;20220;-60
2024/04/01 00:32:17;;;;;;;4.30;1.70;;;14.50;99.90;;;;;;5093778;28;20204;-58
2024/04/01 00:34:42;;;;;;;7.40;1.70;;;14.60;99.90;;;;;;5093738;28;20208;-58
2024/04/01 00:37:09;;;;;;;6.13;1.57;;;14.60;99.90;;;;;;5092966;28;20422;-59
2024/04/01 00:39:35;;;;;;;5.93;1.43;;;14.70;99.90;;;;;;5093950;28;20207;-60
2024/04/01 00:42:01;;;;;;;5.07;1.67;;;14.70;99.90;;;;;;5094097;28;20205;-59
2024/04/01 00:44:27;;;;;;;8.33;2.10;;;14.70;99.90;;;;;;5094009;28;20725;-61
2024/04/01 00:46:55;;;;;;;6.57;1.67;;;14.80;99.90;;;;;;5093299;28;20208;-60
2024/04/01 00:49:22;;;;;;;7.50;1.90;;;14.80;99.90;;;;;;5093050;28;20207;-59
2024/04/01 00:51:49;;;;;;;6.10;1.67;;;14.80;99.90;;;;;;5093715;28;20227;-59
2024/04/01 00:54:16;;;;;;;7.57;1.60;;;14.80;99.90;;;;;;5093116;28;20729;-57
2024/04/01 00:56:47;;;;;;;5.47;1.70;;;14.80;99.90;;;;;;5093317;28;20307;-58
2024/04/01 00:59:15;;;;;;;8.60;2.40;;;14.80;99.90;;;;;;5092798;28;20204;-59
2024/04/01 01:01:45;;;;;;;9.90;1.70;;;14.80;99.90;;;;;;5092859;28;20201;-60
2024/04/01 01:04:14;;;;;;;3.77;1.60;;;14.80;99.90;;;;;;5093370;28;20207;-58
2024/04/01 01:06:41;;;;;;;3.90;1.47;;;14.80;99.90;;;;;;5090799;28;20693;-59
2024/04/01 01:09:08;;;;;;;7.07;1.53;;;14.80;99.90;;;;;;5090466;28;20236;-59
2024/04/01 01:11:35;;;;;;;6.97;1.40;;;14.80;99.90;;;;;;5090966;28;20402;-60
2024/04/01 01:14:01;;;;;;;6.40;1.60;;;14.80;99.90;;;;;;5091118;28;20212;-59
2024/04/01 01:16:28;;;;;;;5.70;1.70;;;14.80;99.90;;;;;;5091737;28;20196;-58
2024/04/01 01:18:53;;;;;;;6.97;1.90;;;14.80;99.90;;;;;;5092441;28;20709;-61
2024/04/01 01:21:21;;;;;;;7.93;1.83;;;14.70;99.90;;;;;;5092738;28;20261;-58
2024/04/01 01:23:49;;;;;;;3.90;1.60;;;14.80;99.90;;;;;;5092618;28;20205;-58
2024/04/01 01:26:15;;;;;;;5.47;1.40;;;14.70;99.90;;;;;;5092429;28;20575;-59
2024/04/01 01:28:41;;;;;;;7.37;1.73;;;14.70;99.90;;;;;;5092129;28;20232;-59
2024/04/01 01:31:08;;;;;;;4.47;1.70;;;14.70;99.90;;;;;;5092321;28;20573;-58
2024/04/01 01:33:34;;;;;;;6.67;1.70;;;14.70;99.90;;;;;;5092447;28;20322;-59
2024/04/01 01:36:01;;;;;;;9.60;2.00;;;14.60;99.90;;;;;;5092466;28;20240;-59
2024/04/01 01:38:27;;;;;;;6.73;1.90;;;14.40;99.90;;;;;;5076110;28;20716;-59
2024/04/01 01:40:55;;;;;;;4.03;1.70;;;14.40;99.90;;;;;;5092437;28;20242;-60
2024/04/01 01:43:21;;;;;;;6.00;1.93;;;14.40;99.90;;;;;;5092162;28;20204;-59
2024/04/01 01:45:47;;;;;;;6.87;1.77;;;14.40;99.90;;;;;;5092451;28;20203;-59
2024/04/01 01:48:13;;;;;;;7.53;1.73;;;14.40;99.90;;;;;;5091662;28;20224;-58
2024/04/01 01:50:39;;;;;;;8.33;2.20;;;14.50;99.90;;;;;;5091630;28;20697;-59
2024/04/01 01:53:05;;;;;;;7.87;2.20;;;14.40;99.90;;;;;;5091889;28;20564;-58
2024/04/01 01:55:32;;;;;;;8.87;2.10;;;14.40;99.90;;;;;;5092259;28;20199;-59
2024/04/01 01:57:59;;;;;;;6.67;2.27;;;14.40;99.90;;;;;;5091680;28;20329;-59
2024/04/01 02:00:25;;;;;;;8.40;1.80;;;14.30;99.90;;;;;;5091922;28;20775;-60
2024/04/01 02:02:52;;;;;;;7.83;2.23;;;14.20;99.90;;;;;;5091894;28;20696;-59
2024/04/01 02:05:19;;;;;;;11.37;2.47;;;14.10;99.90;;;;;;5092052;28;20211;-59
2024/04/01 02:07:44;;;;;;;6.50;1.77;;;14.10;99.90;;;;;;5091891;28;20228;-60
2024/04/01 02:10:13;;;;;;;5.43;2.03;;;13.90;99.90;;;;;;5092609;28;20228;-58
2024/04/01 02:12:39;;;;;;;6.83;1.90;;;13.80;99.90;;;;;;5092625;28;20204;-59
2024/04/01 02:15:14;;;;;;;8.87;2.00;;;13.70;99.90;;;;;;5092613;28;20570;-58
2024/04/01 02:17:40;;;;;;;6.63;1.67;;;13.70;99.90;;;;;;5091828;28;20231;-58
2024/04/01 02:20:11;;;;;;;4.90;1.57;;;13.70;99.90;;;;;;5091821;28;20654;-59
2024/04/01 02:22:37;;;;;;;6.33;1.90;;;13.60;99.90;;;;;;5092087;28;20578;-59
2024/04/01 02:25:05;;;;;;;5.67;1.87;;;13.60;99.90;;;;;;5092087;28;20287;-59
2024/04/01 02:27:30;;;;;;;6.77;1.50;;;13.50;99.90;;;;;;5091288;28;20668;-58
2024/04/01 02:29:57;;;;;;;5.93;2.10;;;13.50;99.90;;;;;;5091690;28;20255;-58
2024/04/01 02:32:24;;;;;;;8.73;1.90;;;13.60;99.90;;;;;;5091737;28;20199;-58
2024/04/01 02:34:50;;;;;;;4.13;1.80;;;13.60;99.90;;;;;;5091982;28;20219;-59
2024/04/01 02:37:16;;;;;;;7.37;1.70;;;13.50;99.90;;;;;;5091399;28;20235;-59
2024/04/01 02:39:43;;;;;;;9.67;1.87;;;13.40;99.90;;;;;;5091798;28;20208;-59
2024/04/01 02:42:09;;;;;;;7.37;2.20;;;13.20;99.90;;;;;;5091716;28;20445;-58
2024/04/01 02:44:35;;;;;;;5.53;1.80;;;13.10;99.90;;;;;;5091663;28;20245;-58
2024/04/01 02:47:01;;;;;;;6.10;1.80;;;13.10;99.90;;;;;;5091174;28;20201;-60
2024/04/01 02:49:30;;;;;;;7.27;1.90;;;13.10;99.90;;;;;;5075000;28;20579;-59
2024/04/01 02:51:55;;;;;;;6.40;1.97;;;13.00;99.90;;;;;;5091508;28;20227;-60
2024/04/01 02:54:23;;;;;;;6.83;2.10;;;13.10;99.90;;;;;;5091098;28;20203;-58
2024/04/01 02:56:49;;;;;;;8.13;1.90;;;13.10;99.90;;;;;;5091506;28;20204;-58
2024/04/01 02:59:16;;;;;;;8.47;1.87;;;13.20;99.90;;;;;;5091344;28;20200;-59
2024/04/01 03:01:41;;;;;;;4.80;1.70;;;13.20;99.90;;;;;;5093746;28;20207;-59
2024/04/01 03:04:08;;;;;;;4.10;1.60;;;13.30;99.90;;;;;;5095198;28;20203;-59
2024/04/01 03:06:36;;;;;;;3.87;1.80;;;13.30;99.90;;;;;;5095038;28;20644;-59
2024/04/01 03:09:04;;;;;;;5.47;1.80;;;13.40;99.90;;;;;;5095169;28;20220;-59
2024/04/01 03:11:30;;;;;;;8.60;1.60;;;13.40;99.90;;;;;;5079302;28;20314;-60
2024/04/01 03:13:57;;;;;;;1.77;1.20;;;13.40;99.90;;;;;;5095029;28;20200;-59
2024/04/01 03:16:23;;;;;;;8.43;1.83;;;13.40;99.90;;;;;;5094856;28;20219;-58
2024/04/01 03:18:49;;;;;;;7.37;1.50;;;13.50;99.90;;;;;;5094597;28;20632;-58
2024/04/01 03:21:15;;;;;;;4.20;1.70;;;13.50;99.90;;;;;;5094661;28;20670;-58
2024/04/01 03:23:43;;;;;;;7.80;2.20;;;13.40;99.90;;;;;;5095142;28;20268;-58
2024/04/01 03:26:09;;;;;;;3.00;1.37;;;13.30;99.90;;;;;;5094929;28;20204;-60
2024/04/01 03:28:36;;;;;;;6.97;2.20;;;13.30;99.90;;;;;;5094616;28;20239;-57
2024/04/01 03:31:05;;;;;;;5.00;1.60;;;13.40;99.90;;;;;;5094885;28;20231;-58
2024/04/01 03:33:33;;;;;;;7.43;1.77;;;13.40;99.90;;;;;;5078965;28;20207;-58
2024/04/01 03:35:59;;;;;;;5.17;2.00;;;13.40;99.90;;;;;;5094741;28;20287;-59
2024/04/01 03:38:25;;;;;;;5.40;1.93;;;13.40;99.90;;;;;;5094488;28;20645;-61
2024/04/01 03:40:53;;;;;;;5.70;1.83;;;13.50;99.90;;;;;;5094725;28;20204;-57
2024/04/01 03:43:20;;;;;;;9.03;2.20;;;13.40;99.90;;;;;;5094518;28;20200;-59
2024/04/01 03:45:56;;;;;;;3.07;1.40;;;13.50;99.90;;;;;;5094574;28;20232;-59
2024/04/01 03:48:22;;;;;;;7.60;1.90;;;13.50;99.90;;;;;;5110411;22;20625;-63
2024/04/01 03:50:48;;;;;;;5.10;1.93;;;13.50;99.90;;;;;;5086051;28;20705;-61
2024/04/01 03:53:15;;;;;;;6.07;1.90;;;13.40;99.90;;;;;;5084771;28;20203;-64
2024/04/01 03:55:40;;;;;;;5.67;1.67;;;13.30;99.90;;;;;;5082537;28;20209;-63
2024/04/01 03:58:08;;;;;;;5.27;1.77;;;13.20;99.90;;;;;;5081978;28;20291;-62
2024/04/01 04:00:34;;;;;;;5.43;1.90;;;13.20;99.90;;;;;;5074357;28;20201;-61
2024/04/01 04:03:01;;;;;;;7.03;1.80;;;13.20;99.90;;;;;;5073992;28;20212;-61
2024/04/01 04:05:27;;;;;;;5.27;2.43;;;13.30;99.90;;;;;;5074051;28;20197;-60
2024/04/01 04:07:54;;;;;;;9.67;2.13;;;13.30;99.90;;;;;;5073840;28;20274;-61
2024/04/01 04:10:23;;;;;;;7.33;2.07;;;13.30;99.90;;;;;;5073800;28;20337;-61
2024/04/01 04:12:50;;;;;;;6.13;2.00;;;13.20;99.90;;;;;;5072854;28;20604;-61
2024/04/01 04:15:17;;;;;;;7.77;2.00;;;13.10;99.90;;;;;;5073805;28;20287;-60
2024/04/01 04:17:43;;;;;;;5.90;1.57;;;13.10;99.90;;;;;;5073247;28;20687;-61
2024/04/01 04:20:11;;;;;;;8.13;1.93;;;13.10;99.90;;;;;;5073337;28;20251;-61
2024/04/01 04:22:37;;;;;;;6.20;1.60;;;13.10;99.90;;;;;;5072202;28;20259;-61
2024/04/01 04:25:04;;;;;;;7.40;1.80;;;13.20;99.90;;;;;;5072379;28;20196;-61
2024/04/01 04:27:30;;;;;;;4.57;1.70;;;13.20;99.90;;;;;;5063457;28;20710;-61
2024/04/01 04:29:57;;;;;;;4.37;1.67;;;13.20;99.90;;;;;;5073408;28;20201;-62
2024/04/01 04:32:24;;;;;;;7.30;2.63;;;13.20;99.90;;;;;;5073759;28;20201;-62
2024/04/01 04:34:51;;;;;;;9.33;2.10;;;13.30;99.90;;;;;;5073562;28;20277;-61
2024/04/01 04:37:17;;;;;;;5.13;1.73;;;13.40;99.90;;;;;;5072935;28;20205;-62
2024/04/01 04:39:44;;;;;;;8.67;1.93;;;13.30;99.90;;;;;;5073436;28;20251;-62
2024/04/01 04:42:10;;;;;;;5.60;2.00;;;13.10;99.90;;;;;;5073431;28;20565;-62
2024/04/01 04:44:37;;;;;;;2.53;1.60;;;13.10;99.90;;;;;;5073301;28;20208;-61
2024/04/01 04:47:04;;;;;;;8.63;2.07;;;13.20;99.90;;;;;;5073193;28;20232;-62
2024/04/01 04:49:31;;;;;;;7.67;1.60;;;13.20;99.90;;;;;;5092727;28;20401;-61
2024/04/01 04:51:57;;;;;;;4.00;1.80;;;13.20;99.90;;;;;;5093633;28;20216;-61
2024/04/01 04:54:24;;;;;;;4.67;1.67;;;13.20;99.90;;;;;;5094097;28;20211;-61
2024/04/01 04:56:50;;;;;;;5.10;1.60;;;13.20;99.90;;;;;;5093863;28;20298;-60
2024/04/01 04:59:16;;;;;;;7.73;1.83;;;13.20;99.90;;;;;;5093254;28;20738;-61
2024/04/01 05:01:42;;;;;;;7.00;2.10;;;13.20;99.90;;;;;;5093805;28;20208;-61
2024/04/01 05:04:11;;;;;;;6.07;2.13;;;13.20;99.90;;;;;;5093117;28;20624;-60
2024/04/01 05:06:39;;;;;;;5.00;1.77;;;13.30;99.90;;;;;;5093594;28;20209;-61
2024/04/01 05:09:08;;;;;;;5.37;1.80;;;13.20;99.90;;;;;;5092587;28;20224;-60
2024/04/01 05:11:34;;;;;;;8.63;1.83;;;13.30;99.90;;;;;;5093000;28;20224;-61
2024/04/01 05:14:01;;;;;;;4.43;1.60;;;13.20;99.90;;;;;;5093137;28;20737;-61
2024/04/01 05:16:27;;;;;;;5.03;1.60;;;13.20;99.90;;;;;;5093184;28;20216;-61
2024/04/01 05:18:53;;;;;;;6.03;1.90;;;13.20;99.90;;;;;;5092677;28;20224;-63
2024/04/01 05:21:19;;;;;;;2.40;1.50;;;13.20;99.90;;;;;;5092536;28;20626;-61
2024/04/01 05:23:47;;;;;;;5.27;2.20;;;13.20;99.90;;;;;;5092644;28;20219;-62
2024/04/01 05:26:13;;;;;;;3.37;1.60;;;13.20;99.90;;;;;;5092705;28;20208;-62
2024/04/01 05:28:40;;;;;;;3.33;1.57;;;13.10;99.90;;;;;;5092709;28;20240;-63
2024/04/01 05:31:05;;;;;;;5.20;1.70;;;13.10;99.90;;;;;;5092572;28;20709;-62
2024/04/01 05:33:33;;;;;;;5.90;1.60;;;13.10;99.90;;;;;;5092548;28;20261;-61
2024/04/01 05:35:59;;;;;;;3.07;1.73;;;13.10;99.90;;;;;;5092283;28;20673;-61
2024/04/01 05:38:27;;;;;;;3.60;1.37;;;13.10;99.90;;;;;;5092207;28;20228;-61
2024/04/01 05:40:54;;;;;;;2.87;1.37;;;13.20;99.90;;;;;;5092369;28;20681;-63
2024/04/01 05:43:20;;;;;;;3.20;1.90;;;13.20;99.90;;;;;;5092524;28;20200;-62
2024/04/01 05:45:47;;;;;;;3.80;2.23;;;13.20;99.90;;;;;;5092637;28;20215;-61
2024/04/01 05:48:13;;;;;;;2.43;1.70;;;13.30;99.90;;;;;;5092205;28;20235;-63
2024/04/01 05:50:40;;;;;;;4.00;1.80;;;13.30;99.90;;;;;;5092536;28;20655;-63
2024/04/01 05:53:06;;;;;;;7.60;2.00;;;13.20;99.90;;;;;;5092185;28;20261;-62
2024/04/01 05:55:32;;;;;;;4.87;2.40;;;13.20;99.90;;;;;;5092054;28;20196;-61
2024/04/01 05:57:59;;;;;;;4.00;2.90;;;13.20;99.90;;;;;;5092029;28;20221;-62
2024/04/01 06:00:26;;;;;;;3.33;2.70;;;13.20;99.90;;;;;;5092134;28;20203;-62
2024/04/01 06:02:53;;;;;;;3.37;2.73;;;13.20;99.90;;;;;;5091933;28;20695;-62
2024/04/01 06:05:18;;;;;;;3.53;3.00;;;13.30;99.90;;;;;;5092219;28;20273;-62
2024/04/01 06:07:47;;;;;;;5.73;3.10;;;13.30;99.90;;;;;;5091877;28;20216;-62
2024/04/01 06:10:12;;;;;;;6.70;3.20;;;13.20;99.90;;;;;;5091964;28;20299;-62
2024/04/01 06:12:39;;;;;;;3.13;2.73;;;13.20;99.90;;;;;;5091768;28;20307;-62
2024/04/01 06:15:06;;;;;;;4.47;2.90;;;13.20;99.90;;;;;;5091939;28;20581;-62
2024/04/01 06:17:33;;;;;;;4.67;2.97;;;13.10;99.90;;;;;;5091623;28;20216;-62
2024/04/01 06:19:59;;;;;;;4.67;2.40;;;13.10;99.90;;;;;;5091856;28;20212;-63
2024/04/01 06:22:27;;;;;;;4.53;2.60;;;13.10;99.90;;;;;;5091613;28;20200;-61
2024/04/01 06:24:53;;;;;;;3.63;2.60;;;13.20;99.90;;;;;;5091753;28;20674;-62
2024/04/01 06:27:19;;;;;;;7.40;4.07;;;13.20;99.90;;;;;;5091624;28;20212;-62
2024/04/01 06:29:45;;;;;;;3.47;2.63;;;13.30;99.90;;;;;;5091977;28;20208;-62
2024/04/01 06:32:13;;;;;;;5.43;2.93;;;13.40;99.90;;;;;;5091595;28;20227;-62
2024/04/01 06:34:39;;;;;;;3.93;2.60;;;13.50;99.90;;;;;;5091772;28;20249;-62
2024/04/01 06:37:06;;;;;;;3.43;2.33;;;13.50;99.90;;;;;;5094683;28;20232;-64
2024/04/01 06:39:31;;;;;;;4.63;3.13;;;13.60;99.90;;;;;;5095702;28;20254;-61
2024/04/01 06:41:58;;;;;;;8.23;6.93;;;13.60;99.90;;;;;;5095798;28;20192;-61
2024/04/01 06:44:24;;;;;;;4.33;2.80;;;13.60;99.90;;;;;;5095743;28;20250;-59
2024/04/01 06:46:51;;;;;;;4.33;2.60;;;13.60;99.90;;;;;;5095863;28;20204;-61
2024/04/01 06:49:18;;;;;;;3.90;2.80;;;13.60;99.90;;;;;;5095245;28;20227;-62
2024/04/01 06:51:45;;;;;;;3.20;2.60;;;13.50;99.90;;;;;;5095380;28;20729;-63
2024/04/01 06:54:10;;;;;;;3.27;2.70;;;13.30;99.90;;;;;;5095603;28;20204;-61
2024/04/01 06:56:37;;;;;;;4.00;3.17;;;13.20;99.90;;;;;;5095544;28;20207;-60
2024/04/01 06:59:03;;;;;;;6.40;3.60;;;13.30;99.90;;;;;;5095221;28;20228;-61
2024/04/01 07:01:30;;;;;;;7.60;3.00;;;13.30;99.90;;;;;;5095192;28;20662;-61
2024/04/01 07:03:55;;;;;;;4.13;2.80;;;13.30;99.90;;;;;;5095193;28;20737;-61
2024/04/01 07:06:23;;;;;;;4.83;3.67;;;13.40;99.90;;;;;;5095049;28;20224;-62
2024/04/01 07:08:49;;;;;;;4.13;2.57;;;13.40;99.90;;;;;;5094797;28;20717;-62
2024/04/01 07:11:16;;;;;;;3.97;2.70;;;13.40;99.90;;;;;;5095016;28;20216;-62
2024/04/01 07:13:41;;;;;;;3.60;2.33;;;13.30;99.90;;;;;;5095170;28;20208;-62
2024/04/01 07:16:08;;;;;;;2.77;2.30;;;13.20;99.90;;;;;;5095049;28;20254;-62
2024/04/01 07:18:35;;;;;;;3.13;2.23;;;13.10;99.90;;;;;;5094568;28;20224;-62
2024/04/01 07:21:03;;;;;;;2.03;1.83;;;13.00;99.90;;;;;;5094887;28;20200;-62
2024/04/01 07:23:30;;;;;;;2.73;2.17;;;13.00;99.90;;;;;;5094881;28;20299;-62
2024/04/01 07:25:56;;;;;;;2.90;1.93;;;13.00;99.90;;;;;;5095140;28;20291;-62
2024/04/01 07:28:22;;;;;;;1.93;1.73;;;13.10;99.90;;;;;;5094456;28;20220;-63
2024/04/01 07:30:49;;;;;;;4.43;3.20;;;13.10;99.90;;;;;;5094701;28;20211;-63
2024/04/01 07:33:14;;;;;;;2.27;1.90;;;13.20;99.90;;;;;;5094444;28;20205;-62
2024/04/01 07:35:41;;;;;;;2.80;1.70;;;13.20;99.90;;;;;;5094731;28;20692;-63
2024/04/01 07:38:07;;;;;;;1.83;1.30;;;13.30;99.90;;;;;;5094505;28;20220;-62
2024/04/01 07:40:35;;;;;;;2.60;1.47;;;13.20;99.90;;;;;;5094054;28;20249;-64
2024/04/01 07:43:00;;;;;;;1.70;1.47;;;13.30;99.90;;;;;;5094534;28;20673;-63
2024/04/01 07:45:27;;;;;;;4.17;3.00;;;13.30;99.90;;;;;;5094584;28;20204;-63
2024/04/01 07:47:53;;;;;;;2.13;1.77;;;13.30;99.90;;;;;;5092626;28;20418;-63
2024/04/01 07:50:19;;;;;;;2.47;1.40;;;13.30;99.90;;;;;;5094618;28;20283;-63
2024/04/01 07:52:45;;;;;;;4.10;1.40;;;13.30;99.90;;;;;;5094521;28;20585;-62
2024/04/01 07:55:12;;;;;;;5.93;1.67;;;13.30;99.90;;;;;;5094345;28;20211;-63
2024/04/01 07:57:39;;;;;;;1.63;1.00;;;13.40;99.90;;;;;;5077820;28;20235;-60
2024/04/01 08:00:08;;;;;;;1.20;0.60;;;13.40;99.90;;;;;;5094282;28;20737;-61
2024/04/01 08:02:33;;;;;;;3.67;0.90;;;13.30;99.90;;;;;;5094003;28;20201;-61
2024/04/01 08:05:00;;;;;;;1.47;0.60;;;13.40;99.90;;;;;;5094431;28;20638;-61
2024/04/01 08:07:26;;;;;;;0.43;0.43;;;13.30;99.90;;;;;;5093743;28;20903;-62
2024/04/01 08:09:53;;;;;;;5.50;3.03;;;13.30;99.90;;;;;;5094174;28;20196;-61
2024/04/01 08:12:18;;;;;;;1.60;0.67;;;13.20;99.90;;;;;;5093542;28;20220;-59
2024/04/01 08:14:46;;;;;;;3.13;0.50;;;13.30;99.90;;;;;;5093997;28;20211;-64
2024/04/01 08:17:12;;;;;;;1.67;0.67;;;13.30;99.90;;;;;;5093437;28;20534;-59
2024/04/01 08:19:39;;;;;;;1.20;0.50;;;13.30;99.90;;;;;;5093907;28;20269;-58
2024/04/01 08:22:05;;;;;;;0.83;0.70;;;13.10;99.90;;;;;;5094259;28;20236;-59
2024/04/01 08:24:32;;;;;;;1.93;0.87;;;13.10;99.90;;;;;;5093780;28;20584;-59
2024/04/01 08:26:58;;;;;;;3.10;1.03;;;13.10;99.90;;;;;;5093682;28;20624;-59
2024/04/01 08:29:25;;;;;;;2.77;1.13;;;13.20;99.90;;;;;;5093819;28;20216;-59
2024/04/01 08:31:52;;;;;;;1.80;0.50;;;13.20;99.90;;;;;;5093469;28;20277;-60
2024/04/01 08:34:18;;;;;;;1.40;0.70;;;13.30;99.90;;;;;;5093778;28;20214;-59
2024/04/01 08:36:44;;;;;;;1.40;0.70;;;13.40;99.90;;;;;;5093836;28;20200;-59
2024/04/01 08:39:11;;;;;;;1.90;0.80;;;13.50;99.90;;;;;;5093497;28;20228;-60
2024/04/01 08:41:39;;;;;;;1.53;0.67;;;13.50;99.90;;;;;;5093588;28;20226;-60
2024/04/01 08:44:12;;;;;;;1.97;0.90;;;13.50;99.90;;;;;;5093376;28;20200;-60
2024/04/01 08:46:40;;;;;;;1.27;0.83;;;13.60;99.90;;;;;;5093358;28;20662;-58
2024/04/01 08:49:11;;;;;;;0.80;0.50;;;13.70;99.90;;;;;;5092950;28;20315;-61
2024/04/01 08:51:37;;;;;;;2.23;1.33;;;13.80;99.90;;;;;;5093005;28;20247;-60
2024/04/01 08:54:07;;;;;;;3.43;0.80;;;13.90;99.90;;;;;;5093093;28;20737;-60
2024/04/01 08:56:36;;;;;;;1.23;0.70;;;14.00;99.90;;;;;;5093065;28;20619;-60
2024/04/01 08:59:03;;;;;;;0.90;0.67;;;14.10;99.90;;;;;;5092253;28;20235;-60
2024/04/01 09:01:29;;;;;;;2.50;0.90;;;14.20;99.90;;;;;;5093253;28;20203;-60
2024/04/01 09:03:55;;;;;;;4.57;3.90;;;14.10;99.90;;;;;;5093139;28;20213;-58
2024/04/01 09:06:23;;;;;;;14.80;12.53;;;14.20;99.90;;;;;;5092957;28;20204;-60
2024/04/01 09:08:51;;;;;;;0.60;0.60;;;14.40;99.90;;;;;;5092796;28;20247;-60
2024/04/01 09:11:18;;;;;;;0.90;0.70;;;14.50;99.90;;;;;;5092619;28;20220;-59
2024/04/01 09:13:46;;;;;;;0.93;0.67;;;14.50;99.90;;;;;;5093050;28;20215;-60
2024/04/01 09:16:13;;;;;;;1.10;0.67;;;14.60;99.90;;;;;;5093002;28;20314;-61
2024/04/01 09:18:39;;;;;;;1.23;0.43;;;14.50;99.90;;;;;;5076030;28;20660;-60
2024/04/01 09:21:07;;;;;;;0.33;0.20;;;14.60;99.90;;;;;;5092798;28;20204;-60
2024/04/01 09:23:41;;;;;;;0.83;0.43;;;14.60;99.90;;;;;;5092527;28;20684;-60
2024/04/01 09:26:08;;;;;;;1.30;0.67;;;14.60;99.90;;;;;;5093560;28;20614;-60
2024/04/01 09:28:34;;;;;;;2.33;1.80;;;14.70;99.90;;;;;;5092544;28;20318;-60
2024/04/01 09:31:01;;;;;;;0.77;0.40;;;14.90;99.90;;;;;;5092902;28;20291;-58
2024/04/01 09:33:27;;;;;;;0.50;0.50;;;15.30;99.90;;;;;;5092416;28;20625;-59
2024/04/01 09:35:54;;;;;;;1.33;0.60;;;15.50;99.90;;;;;;5092877;28;20196;-59
2024/04/01 09:38:22;;;;;;;6.03;5.43;;;15.70;99.90;;;;;;5091874;28;20232;-58
2024/04/01 09:40:51;;;;;;;1.10;0.70;;;15.70;99.90;;;;;;5092335;28;20211;-60
2024/04/01 09:43:24;;;;;;;1.57;0.77;;;15.70;99.90;;;;;;5092456;28;20246;-59
2024/04/01 09:45:51;;;;;;;0.90;0.63;;;15.70;99.90;;;;;;5092577;28;20207;-60
2024/04/01 09:48:20;;;;;;;1.03;0.70;;;15.80;99.90;;;;;;5092066;28;20228;-59
2024/04/01 09:50:47;;;;;;;0.40;0.40;;;15.80;99.90;;;;;;5092371;28;20219;-59
2024/04/01 09:53:14;;;;;;;1.50;0.70;;;15.80;99.90;;;;;;5085310;28;20758;-61
2024/04/01 09:56:19;;;;;;;0.20;0.20;;;15.80;99.90;;;;;;5092510;28;20204;-64
2024/04/01 09:59:12;;;;;;;1.08;0.30;;;15.90;99.90;;;;;;5076829;28;20627;-61
2024/04/01 10:01:55;;;;;;;3.03;0.67;;;16.10;99.90;;;;;;5091905;28;20200;-63
2024/04/01 10:04:53;;;;;;;0.40;0.40;;;16.10;99.90;;;;;;5092520;28;20231;-61
2024/04/01 10:07:48;;;;;;;0.27;0.27;;;16.20;99.90;;;;;;5091963;28;20665;-60
2024/04/01 10:10:34;;;;;;;0.60;0.47;;;16.20;99.90;;;;;;5089716;28;20578;-60
2024/04/01 10:13:32;;;;;;;0.88;0.63;;;16.00;99.90;;;;;;5082935;28;20277;-61
2024/04/01 10:16:15;;;;;;;0.10;0.10;;;15.50;99.90;;;;;;5082232;28;20283;-60
2024/04/01 10:19:07;;;;;;;0.77;0.23;;;15.10;99.90;;;;;;5077255;28;20228;-59
2024/04/01 10:22:10;;;;;;;1.30;1.10;;;14.90;99.90;;;;;;5093684;28;20354;-61
2024/04/01 10:25:12;;;;;;;0.43;0.40;;;14.80;99.90;;;;;;5091634;28;20211;-60
2024/04/01 10:28:21;;;;;;;0.10;0.10;;;14.80;99.90;;;;;;5093161;28;20273;-62
2024/04/01 10:31:22;;;;;;;0.37;0.20;;;14.90;99.90;;;;;;5039438;28;20257;-62
2024/04/01 10:34:33;;;;;;;0.50;0.30;;;15.10;99.90;;;;;;5079982;28;20249;-61
2024/04/01 10:37:34;;;;;;;1.77;1.17;;;15.30;99.90;;;;;;5079471;28;20604;-60
2024/04/01 10:40:08;;;;;;;2.07;0.83;;;15.50;99.90;;;;;;5080480;28;20579;-57
2024/04/01 10:43:07;;;;;;;0.60;0.40;;;15.70;99.90;;;;;;5091294;28;20208;-57
2024/04/01 10:46:15;;;;;;;0.77;0.50;;;15.70;99.90;;;;;;5058884;28;20661;-60
2024/04/01 10:48:57;;;;;;;10.73;0.33;;;15.70;99.90;;;;;;5070549;28;20243;-59
2024/04/01 10:51:42;;;;;;;0.20;0.17;;;15.60;99.90;;;;;;5090932;28;20283;-60
2024/04/01 10:54:15;;;;;;;0.30;0.20;;;15.40;99.90;;;;;;5091456;28;20662;-59
2024/04/01 10:57:19;;;;;;;0.10;0.10;;;15.30;99.90;;;;;;5091746;28;20627;-59
2024/04/01 11:00:33;;;;;;;0.53;0.30;;;15.40;99.90;;;;;;5076349;28;20209;-59
2024/04/01 11:03:45;;;;;;;0.40;0.20;;;15.20;99.90;;;;;;5079464;28;20254;-60
2024/04/01 11:06:31;;;;;;;1.67;0.40;;;15.30;99.90;;;;;;5082928;28;20657;-59
2024/04/01 11:09:13;;;;;;;0.87;0.50;;;15.20;99.90;;;;;;5078755;28;20228;-58
2024/04/01 11:11:45;;;;;;;0.50;0.50;;;15.10;99.90;;;;;;5091480;28;20223;-58
2024/04/01 11:14:12;;;;;;;1.70;1.33;;;14.90;99.90;;;;;;5091121;28;20208;-59
2024/04/01 11:16:41;;;;;;;1.20;1.10;;;15.00;99.90;;;;;;5090952;28;20213;-59
2024/04/01 11:19:26;;;;;;;0.27;0.20;;;15.10;99.90;;;;;;5091293;28;20269;-59
2024/04/01 11:21:57;;;;;;;0.20;0.20;;;15.20;99.90;;;;;;5078234;28;20203;-63
2024/04/01 11:24:41;;;;;;;0.40;0.30;;;15.30;99.90;;;;;;5094792;28;20200;-58
2024/04/01 11:27:21;;;;;;;1.07;0.60;;;15.30;99.90;;;;;;5094565;28;20207;-59
2024/04/01 11:30:06;;;;;;;0.53;0.23;;;15.30;99.90;;;;;;5079396;28;20250;-58
2024/04/01 11:32:33;;;;;;;0.30;0.30;;;15.40;99.90;;;;;;5094377;28;20739;-59
2024/04/01 11:35:12;;;;;;;0.43;0.20;;;15.40;99.90;;;;;;5094592;28;20417;-59
2024/04/01 11:37:49;;;;;;;0.10;0.10;;;15.60;99.90;;;;;;5094397;28;20320;-59
2024/04/01 11:40:20;;;;;;;0.73;0.17;;;15.80;99.90;;;;;;5094622;28;20207;-58
2024/04/01 11:42:52;;;;;;;0.00;0.00;;;16.00;99.90;;;;;;5078853;28;20226;-58
2024/04/01 11:45:22;;;;;;;1.57;0.20;;;16.10;99.90;;;;;;5094541;28;20283;-58
2024/04/01 11:47:49;;;;;;;1.03;0.70;;;16.10;99.90;;;;;;5078620;28;20224;-58
2024/04/01 11:50:16;;;;;;;0.70;0.40;;;16.00;99.90;;;;;;5094489;28;20196;-57
2024/04/01 11:52:43;;;;;;;0.20;0.20;;;15.80;99.90;;;;;;5094033;28;20755;-62
2024/04/01 11:55:11;;;;;;;0.13;0.13;;;15.70;99.90;;;;;;5094247;28;20200;-59
2024/04/01 11:57:37;;;;;;;2.20;0.40;;;15.70;99.90;;;;;;5094651;28;20232;-60
2024/04/01 12:00:05;;;;;;;0.37;0.23;;;15.50;99.90;;;;;;5094410;28;20228;-59
2024/04/01 12:02:31;;;;;;;0.63;0.30;;;15.40;99.90;;;;;;5093939;28;20666;-59
2024/04/01 12:05:03;;;;;;;1.33;0.37;;;15.30;99.90;;;;;;5094328;28;20204;-58
2024/04/01 12:07:30;;;;;;;1.60;0.20;;;15.20;99.90;;;;;;5093991;28;20259;-58
2024/04/01 12:10:04;;;;;;;0.60;0.60;;;14.80;99.90;;;;;;5094280;28;20550;-58
2024/04/01 12:12:30;;;;;;;0.27;0.20;;;14.50;99.90;;;;;;5093810;28;20228;-59
2024/04/01 12:14:57;;;;;;;0.40;0.20;;;14.20;99.90;;;;;;5093736;28;20200;-58
2024/04/01 12:17:23;;;;;;;0.53;0.40;;;14.20;99.90;;;;;;5093917;28;20209;-58
2024/04/01 12:19:50;;;;;;;2.13;0.70;;;14.10;99.90;;;;;;5094135;28;20200;-59
2024/04/01 12:22:15;;;;;;;1.17;0.70;;;14.20;99.90;;;;;;5093987;28;20619;-60
2024/04/01 12:24:43;;;;;;;1.23;0.40;;;14.30;99.90;;;;;;5094166;28;20204;-57
2024/04/01 12:27:11;;;;;;;0.40;0.20;;;14.50;99.90;;;;;;5093383;28;20235;-58
2024/04/01 12:29:39;;;;;;;0.10;0.10;;;14.70;99.90;;;;;;5093959;28;20216;-59
2024/04/01 12:32:09;;;;;;;0.17;0.17;;;14.80;99.90;;;;;;5094007;28;20255;-61
2024/04/01 12:34:36;;;;;;;0.70;0.30;;;14.80;99.90;;;;;;5092808;28;20689;-58
2024/04/01 12:37:03;;;;;;;0.60;0.30;;;14.90;99.90;;;;;;5093883;28;20200;-60
2024/04/01 12:39:29;;;;;;;0.53;0.40;;;15.10;99.90;;;;;;5092996;28;20224;-57
2024/04/01 12:41:57;;;;;;;0.53;0.40;;;15.40;99.90;;;;;;5093362;28;20192;-59
2024/04/01 12:44:24;;;;;;;0.60;0.30;;;15.80;99.90;;;;;;5093435;28;20207;-56
2024/04/01 12:46:51;;;;;;;2.67;0.30;;;16.00;99.90;;;;;;5093517;28;20650;-59
2024/04/01 12:49:18;;;;;;;0.20;0.20;;;16.20;99.90;;;;;;5093088;28;20227;-58
2024/04/01 12:51:45;;;;;;;0.30;0.30;;;16.20;99.90;;;;;;5092999;28;20224;-59
2024/04/01 12:54:37;;;;;;;0.57;0.20;;;15.90;99.90;;;;;;5093323;28;20314;-59
2024/04/01 12:57:20;;;;;;;0.38;0.28;;;15.60;99.90;;;;;;5081914;28;20196;-59